Terminal Aerodrome Forecast
Issued by NWS Chicago, IL

Home | Current Version | Previous Version | Graphics & Text | Print | Product List | Glossary On
Versions: 1 2 3 4 5 6 7 8 9 10 11 12 13 14 15 16 17 18 19 20 21 22 23 24 25 26 27 28 29 30 31 32 33 34
000
FTUS43 KLOT 240500
TAFRFD
TAF
KRFD 240526Z 2406/2506 VRB03KT 6SM BR FEW024 BKN040
     FM240800 VRB03KT 2SM BR MIFG OVC008
     FM241400 27004KT P6SM OVC015
     FM241800 22007KT P6SM SCT025 SCT250
     FM242200 21006KT P6SM BKN080
     FM250300 20007KT 3SM BR BKN015=

USA.gov is the U.S. government's official web portal to all federal, state and local government web resources and services.